Time,TemperatureF,DewpointF,PressureIn,WindDirection,WindDirectionDegrees,WindSpeedMPH,WindSpeedGustMPH,Humidity,HourlyPrecipIn,Conditions,Clouds,dailyrainin,SoftwareType,DateUTC
2014-11-28 00:04:00,29.5,15.7,30.42,SSW,198,1.0,3.0,56,0.00,,,0.00,Wunderground v.1.13,2014-11-28 05:04:00,
2014-11-28 00:14:00,29.7,16.7,30.42,South,178,1.0,4.0,58,0.00,,,0.00,Wunderground v.1.13,2014-11-28 05:14:00,
2014-11-28 00:24:00,29.5,16.1,30.42,South,171,1.0,1.0,57,0.00,,,0.00,Wunderground v.1.13,2014-11-28 05:24:00,
2014-11-28 00:34:00,29.5,16.1,30.42,SSW,198,0.0,3.0,57,0.00,,,0.00,Wunderground v.1.13,2014-11-28 05:34:00,
2014-11-28 00:44:00,29.4,15.2,30.42,South,191,0.0,3.0,55,0.00,,,0.00,Wunderground v.1.13,2014-11-28 05:44:00,
2014-11-28 00:54:00,29.5,14.9,30.42,SSW,195,0.0,3.0,54,0.00,,,0.00,Wunderground v.1.13,2014-11-28 05:54:00,
2014-11-28 01:04:00,29.5,14.9,30.41,SW,220,1.0,1.0,54,0.00,,,0.00,Wunderground v.1.13,2014-11-28 06:04:00,
2014-11-28 01:14:00,29.4,15.2,30.41,SW,215,1.0,1.0,55,0.00,,,0.00,Wunderground v.1.13,2014-11-28 06:14:00,
2014-11-28 01:24:00,29.4,16.0,30.41,South,186,1.0,1.0,57,0.00,,,0.00,Wunderground v.1.13,2014-11-28 06:24:00,
2014-11-28 01:34:00,29.4,16.0,30.41,SSW,202,1.0,3.0,57,0.00,,,0.00,Wunderground v.1.13,2014-11-28 06:34:00,
2014-11-28 01:44:00,29.4,16.0,30.41,SSW,213,1.0,3.0,57,0.00,,,0.00,Wunderground v.1.13,2014-11-28 06:44:00,
2014-11-28 01:54:00,29.1,14.9,30.40,South,182,1.0,1.0,55,0.00,,,0.00,Wunderground v.1.13,2014-11-28 06:54:00,
2014-11-28 02:04:00,28.8,14.6,30.40,SSW,212,1.0,1.0,55,0.00,,,0.00,Wunderground v.1.13,2014-11-28 07:04:00,
2014-11-28 02:14:00,28.7,14.1,30.40,ENE,58,0.0,3.0,54,0.00,,,0.00,Wunderground v.1.13,2014-11-28 07:14:00,
2014-11-28 02:24:00,28.5,14.8,30.40,South,172,1.0,3.0,56,0.00,,,0.00,Wunderground v.1.13,2014-11-28 07:24:00,
2014-11-28 02:34:00,28.4,14.7,30.41,SW,224,0.0,3.0,56,0.00,,,0.00,Wunderground v.1.13,2014-11-28 07:34:00,
2014-11-28 02:44:00,28.2,14.9,30.41,SW,224,0.0,3.0,57,0.00,,,0.00,Wunderground v.1.13,2014-11-28 07:44:00,
2014-11-28 02:54:00,28.2,14.5,30.41,SW,223,0.0,3.0,56,0.00,,,0.00,Wunderground v.1.13,2014-11-28 07:54:00,
2014-11-28 03:04:00,28.2,13.2,30.41,SW,234,1.0,1.0,53,0.00,,,0.00,Wunderground v.1.13,2014-11-28 08:04:00,
2014-11-28 03:14:00,28.4,14.3,30.41,SW,224,0.0,3.0,55,0.00,,,0.00,Wunderground v.1.13,2014-11-28 08:14:00,
2014-11-28 03:24:00,28.4,15.1,30.41,SW,219,0.0,3.0,57,0.00,,,0.00,Wunderground v.1.13,2014-11-28 08:24:00,
2014-11-28 03:34:00,28.5,15.6,30.41,SW,219,0.0,3.0,58,0.00,,,0.00,Wunderground v.1.13,2014-11-28 08:34:00,
2014-11-28 03:44:00,28.5,15.2,30.41,SW,219,0.0,3.0,57,0.00,,,0.00,Wunderground v.1.13,2014-11-28 08:44:00,
2014-11-28 03:54:00,28.4,14.7,30.41,SW,219,0.0,3.0,56,0.00,,,0.00,Wunderground v.1.13,2014-11-28 08:54:00,
2014-11-28 04:04:00,28.5,15.6,30.41,SW,216,1.0,1.0,58,0.00,,,0.00,Wunderground v.1.13,2014-11-28 09:04:00,
2014-11-28 04:14:00,28.4,15.5,30.41,South,172,1.0,1.0,58,0.00,,,0.00,Wunderground v.1.13,2014-11-28 09:14:00,
2014-11-28 04:24:00,28.4,15.5,30.40,South,172,0.0,3.0,58,0.00,,,0.00,Wunderground v.1.13,2014-11-28 09:24:00,
2014-11-28 04:34:00,28.4,15.1,30.40,South,172,0.0,3.0,57,0.00,,,0.00,Wunderground v.1.13,2014-11-28 09:34:00,
2014-11-28 04:44:00,28.4,15.1,30.40,South,171,1.0,3.0,57,0.00,,,0.00,Wunderground v.1.13,2014-11-28 09:44:00,
2014-11-28 04:54:00,28.4,15.5,30.42,SSE,167,1.0,3.0,58,0.00,,,0.00,Wunderground v.1.13,2014-11-28 09:54:00,
2014-11-28 05:04:00,28.4,15.9,30.41,SSE,167,1.0,1.0,59,0.00,,,0.00,Wunderground v.1.13,2014-11-28 10:04:00,
2014-11-28 05:14:00,28.4,15.9,30.41,SSE,165,1.0,3.0,59,0.00,,,0.00,Wunderground v.1.13,2014-11-28 10:14:00,
2014-11-28 05:24:00,28.4,15.9,30.42,SSE,164,1.0,1.0,59,0.00,,,0.00,Wunderground v.1.13,2014-11-28 10:24:00,
2014-11-28 05:34:00,28.4,15.9,30.42,SSE,162,1.0,1.0,59,0.00,,,0.00,Wunderground v.1.13,2014-11-28 10:34:00,
2014-11-28 05:44:00,28.4,15.9,30.42,SSE,162,0.0,3.0,59,0.00,,,0.00,Wunderground v.1.13,2014-11-28 10:44:00,
2014-11-28 05:54:00,28.4,15.9,30.42,SSE,162,1.0,1.0,59,0.00,,,0.00,Wunderground v.1.13,2014-11-28 10:54:00,
2014-11-28 06:04:00,28.4,15.9,30.42,SSE,162,1.0,1.0,59,0.00,,,0.00,Wunderground v.1.13,2014-11-28 11:04:00,
2014-11-28 06:14:00,28.5,16.0,30.42,SSE,152,1.0,1.0,59,0.00,,,0.00,Wunderground v.1.13,2014-11-28 11:14:00,
2014-11-28 06:24:00,28.5,16.4,30.42,SSE,152,1.0,1.0,60,0.00,,,0.00,Wunderground v.1.13,2014-11-28 11:24:00,
2014-11-28 06:34:00,28.5,16.7,30.42,SE,143,1.0,1.0,61,0.00,,,0.00,Wunderground v.1.13,2014-11-28 11:34:00,
2014-11-28 06:44:00,28.7,17.3,30.42,SE,140,0.0,3.0,62,0.00,,,0.00,Wunderground v.1.13,2014-11-28 11:44:00,
2014-11-28 06:54:00,28.7,18.1,30.43,SE,144,1.0,3.0,64,0.00,,,0.00,Wunderground v.1.13,2014-11-28 11:54:00,
2014-11-28 07:04:00,28.8,18.9,30.43,SSE,151,2.0,3.0,66,0.00,,,0.00,Wunderground v.1.13,2014-11-28 12:04:00,
2014-11-28 07:14:00,29.0,20.1,30.43,SSW,206,1.0,1.0,69,0.00,,,0.00,Wunderground v.1.13,2014-11-28 12:14:00,
2014-11-28 07:24:00,29.0,19.8,30.43,SSE,164,1.0,5.0,68,0.00,,,0.00,Wunderground v.1.13,2014-11-28 12:24:00,
2014-11-28 07:34:00,28.8,19.2,30.43,SSE,158,2.0,3.0,67,0.00,,,0.00,Wunderground v.1.13,2014-11-28 12:34:00,
2014-11-28 07:44:00,28.8,19.9,30.43,ESE,119,2.0,2.0,69,0.00,,,0.00,Wunderground v.1.13,2014-11-28 12:44:00,
2014-11-28 07:54:00,28.7,19.8,30.43,South,172,2.0,3.0,69,0.00,,,0.00,Wunderground v.1.13,2014-11-28 12:54:00,
2014-11-28 08:04:00,28.7,19.8,30.42,SE,145,2.0,3.0,69,0.00,,,0.00,Wunderground v.1.13,2014-11-28 13:04:00,
2014-11-28 08:14:00,28.7,19.8,30.42,SSE,147,1.0,1.0,69,0.00,,,0.00,Wunderground v.1.13,2014-11-28 13:14:00,
2014-11-28 08:24:00,28.7,19.8,30.41,SE,143,2.0,2.0,69,0.00,,,0.00,Wunderground v.1.13,2014-11-28 13:24:00,
2014-11-28 08:34:00,28.7,19.5,30.41,SE,141,2.0,2.0,68,0.00,,,0.00,Wunderground v.1.13,2014-11-28 13:34:00,
2014-11-28 08:44:00,28.8,19.2,30.41,SE,140,1.0,3.0,67,0.00,,,0.00,Wunderground v.1.13,2014-11-28 13:44:00,
2014-11-28 08:54:00,29.0,19.1,30.41,SE,143,1.0,1.0,66,0.00,,,0.00,Wunderground v.1.13,2014-11-28 13:54:00,
2014-11-28 09:04:00,29.0,18.3,30.41,SE,136,1.0,1.0,64,0.00,,,0.00,Wunderground v.1.13,2014-11-28 14:04:00,
2014-11-28 09:14:00,29.1,18.1,30.41,SE,138,1.0,3.0,63,0.00,,,0.00,Wunderground v.1.13,2014-11-28 14:14:00,
2014-11-28 09:24:00,29.4,17.2,30.41,ESE,121,2.0,2.0,60,0.00,,,0.00,Wunderground v.1.13,2014-11-28 14:24:00,
2014-11-28 09:34:00,29.7,17.1,30.40,ESE,116,1.0,1.0,59,0.00,,,0.00,Wunderground v.1.13,2014-11-28 14:34:00,
2014-11-28 09:44:00,29.8,16.8,30.40,ESE,123,1.0,3.0,58,0.00,,,0.00,Wunderground v.1.13,2014-11-28 14:44:00,
2014-11-28 09:54:00,30.1,17.1,30.40,SE,136,1.0,3.0,58,0.00,,,0.00,Wunderground v.1.13,2014-11-28 14:54:00,
2014-11-28 10:04:00,30.3,16.9,30.41,SE,124,3.0,3.0,57,0.00,,,0.00,Wunderground v.1.13,2014-11-28 15:04:00,
2014-11-28 10:14:00,30.7,16.4,30.41,SE,128,3.0,7.0,55,0.00,,,0.00,Wunderground v.1.13,2014-11-28 15:14:00,